createdAt,value
2023-02-19T00:01:57.172Z,17.00
2023-02-19T00:05:03.999Z,17.80
2023-02-19T00:08:11.437Z,13.50
2023-02-19T00:11:18.696Z,12.80
2023-02-19T00:14:26.016Z,15.50
2023-02-19T00:17:33.279Z,16.20
2023-02-19T00:20:40.617Z,14.50
2023-02-19T00:23:47.961Z,20.50
2023-02-19T00:26:55.781Z,13.00
2023-02-19T00:30:03.271Z,15.70
2023-02-19T00:33:10.691Z,11.30
2023-02-19T00:36:17.793Z,17.00
2023-02-19T00:39:25.464Z,14.60
2023-02-19T00:42:33.201Z,13.50
2023-02-19T00:45:40.191Z,13.70
2023-02-19T00:48:47.812Z,13.00
2023-02-19T00:51:55.248Z,13.40
2023-02-19T00:55:02.243Z,14.00
2023-02-19T00:58:09.756Z,11.50
2023-02-19T01:01:16.702Z,16.00
2023-02-19T01:04:24.405Z,13.10
2023-02-19T01:07:32.197Z,16.40
2023-02-19T01:10:39.094Z,14.40
2023-02-19T01:13:46.851Z,13.90
2023-02-19T01:16:54.538Z,12.20
2023-02-19T01:20:01.416Z,11.40
2023-02-19T01:23:08.977Z,13.80
2023-02-19T01:25:07.391Z,14.80
2023-02-19T01:28:14.583Z,12.20
2023-02-19T01:31:21.939Z,12.30
2023-02-19T01:34:29.253Z,13.40
2023-02-19T01:37:36.469Z,15.20
2023-02-19T01:40:43.721Z,12.60
2023-02-19T01:43:51.051Z,17.00
2023-02-19T01:46:58.374Z,16.40
2023-02-19T01:50:05.546Z,19.70
2023-02-19T01:53:13.030Z,15.40
2023-02-19T01:56:20.179Z,20.30
2023-02-19T01:59:27.429Z,18.10
2023-02-19T02:02:35.023Z,20.40
2023-02-19T02:05:42.073Z,26.10
2023-02-19T02:08:49.669Z,27.70
2023-02-19T02:11:57.067Z,41.50
2023-02-19T02:15:04.299Z,42.90
2023-02-19T02:18:12.005Z,46.70
2023-02-19T02:21:19.084Z,56.40
2023-02-19T02:24:26.704Z,49.00
2023-02-19T02:27:34.317Z,47.10
2023-02-19T02:30:41.715Z,23.00
2023-02-19T02:33:48.899Z,15.00
2023-02-19T02:36:56.055Z,12.10
2023-02-19T02:40:03.265Z,15.80
2023-02-19T02:43:10.767Z,10.90
2023-02-19T02:46:17.771Z,9.60
2023-02-19T02:49:25.558Z,10.00
2023-02-19T02:52:32.716Z,13.30
2023-02-19T02:55:40.403Z,11.20
2023-02-19T02:58:48.279Z,12.80
2023-02-19T03:01:55.477Z,9.50
2023-02-19T03:05:02.730Z,8.10
2023-02-19T03:08:10.066Z,8.00
2023-02-19T03:11:17.349Z,7.70
2023-02-19T03:14:24.896Z,9.00
2023-02-19T03:17:32.091Z,7.90
2023-02-19T03:20:39.374Z,9.20
2023-02-19T03:23:46.894Z,7.60
2023-02-19T03:26:54.214Z,5.50
2023-02-19T03:30:01.560Z,6.10
2023-02-19T03:33:09.332Z,5.80
2023-02-19T03:36:16.538Z,6.70
2023-02-19T03:39:23.880Z,8.70
2023-02-19T03:42:31.058Z,7.50
2023-02-19T03:45:38.656Z,8.90
2023-02-19T03:48:46.008Z,10.40
2023-02-19T03:51:53.080Z,10.00
2023-02-19T03:55:00.803Z,10.60
2023-02-19T03:58:07.795Z,12.90
2023-02-19T04:01:15.572Z,5.80
2023-02-19T04:04:23.409Z,4.50
2023-02-19T04:07:30.740Z,3.50
2023-02-19T04:10:38.086Z,3.40
2023-02-19T04:13:45.156Z,6.00
2023-02-19T04:16:53.000Z,9.60
2023-02-19T04:20:00.635Z,8.50
2023-02-19T04:23:08.187Z,9.50
2023-02-19T04:26:15.547Z,10.10
2023-02-19T04:29:22.861Z,11.20
2023-02-19T04:32:30.246Z,10.10
2023-02-19T04:35:38.026Z,11.90
2023-02-19T04:38:45.067Z,9.50
2023-02-19T04:41:52.703Z,12.30
2023-02-19T04:45:00.421Z,7.60
2023-02-19T04:48:07.339Z,8.80
2023-02-19T04:51:15.158Z,7.60
2023-02-19T04:54:22.917Z,7.40
2023-02-19T04:57:29.949Z,9.60
2023-02-19T05:00:37.792Z,10.20
2023-02-19T05:03:45.217Z,6.50
2023-02-19T05:06:52.552Z,7.90
2023-02-19T05:10:00.423Z,7.30
2023-02-19T05:13:08.269Z,7.70
2023-02-19T05:16:16.226Z,7.90
2023-02-19T05:19:24.353Z,10.40
2023-02-19T05:22:31.430Z,10.40
2023-02-19T05:25:39.373Z,16.50
2023-02-19T05:28:47.502Z,9.20
2023-02-19T05:31:55.098Z,14.30
2023-02-19T05:35:02.294Z,16.00
2023-02-19T05:38:09.560Z,11.50
2023-02-19T05:41:17.453Z,16.50
2023-02-19T05:44:24.940Z,17.50
2023-02-19T05:47:32.516Z,20.60
2023-02-19T05:50:40.127Z,27.20
2023-02-19T05:53:47.347Z,29.00
2023-02-19T05:56:54.289Z,23.50
2023-02-19T06:00:02.211Z,20.80
2023-02-19T06:03:09.231Z,21.00
2023-02-19T06:06:16.751Z,21.20
2023-02-19T06:09:24.520Z,16.10
2023-02-19T06:12:31.500Z,11.00
2023-02-19T06:15:39.296Z,14.40
2023-02-19T06:18:46.666Z,9.80
2023-02-19T06:21:53.734Z,9.80
2023-02-19T06:25:01.975Z,10.60
2023-02-19T06:28:09.086Z,6.60
2023-02-19T06:31:16.976Z,4.60
2023-02-19T06:34:24.936Z,5.20
2023-02-19T06:37:32.523Z,4.40
2023-02-19T06:40:40.856Z,3.00
2023-02-19T06:43:48.538Z,5.30
2023-02-19T06:46:56.195Z,4.80
2023-02-19T06:50:07.631Z,5.10
2023-02-19T06:53:06.004Z,5.60
2023-02-19T06:56:13.025Z,4.10
2023-02-19T06:59:20.305Z,4.70
2023-02-19T07:02:28.837Z,5.30
2023-02-19T07:05:36.560Z,6.80
2023-02-19T07:08:44.870Z,4.30
2023-02-19T07:11:52.685Z,10.00
2023-02-19T07:15:00.045Z,5.70
2023-02-19T07:18:07.942Z,6.60
2023-02-19T07:21:15.216Z,7.00
2023-02-19T07:24:22.667Z,4.60
2023-02-19T07:27:29.910Z,4.00
2023-02-19T07:30:37.458Z,6.20
2023-02-19T07:33:45.058Z,5.70
2023-02-19T07:36:52.257Z,5.80
2023-02-19T07:40:00.141Z,5.60
2023-02-19T07:43:08.024Z,9.50
2023-02-19T07:46:15.159Z,6.70
2023-02-19T07:49:23.043Z,10.90
2023-02-19T07:52:30.820Z,10.30
2023-02-19T07:55:37.740Z,10.50
2023-02-19T07:58:45.726Z,12.70
2023-02-19T08:01:53.529Z,10.00
2023-02-19T08:05:00.687Z,12.60
2023-02-19T08:08:08.424Z,13.60
2023-02-19T08:11:15.767Z,10.20
2023-02-19T08:14:23.042Z,12.10
2023-02-19T08:17:30.577Z,13.20
2023-02-19T08:20:37.984Z,16.80
2023-02-19T08:23:45.165Z,12.30
2023-02-19T08:26:52.460Z,13.00
2023-02-19T08:30:00.287Z,10.00
2023-02-19T08:33:07.684Z,14.00
2023-02-19T08:36:15.276Z,9.70
2023-02-19T08:39:23.011Z,9.20
2023-02-19T08:42:30.614Z,11.30
2023-02-19T08:45:37.935Z,9.60
2023-02-19T08:48:45.259Z,9.30
2023-02-19T08:51:52.667Z,10.60
2023-02-19T08:54:59.865Z,10.40
2023-02-19T08:58:07.560Z,9.40
2023-02-19T09:01:15.597Z,9.70
2023-02-19T09:04:23.726Z,9.30
2023-02-19T09:07:31.107Z,11.40
2023-02-19T09:10:38.449Z,8.70
2023-02-19T09:13:46.196Z,9.80
2023-02-19T09:16:53.671Z,7.40
2023-02-19T09:20:01.292Z,9.40
2023-02-19T09:23:08.966Z,6.70
2023-02-19T09:26:15.955Z,5.50
2023-02-19T09:28:00.254Z,7.20
2023-02-19T09:31:07.233Z,4.80
2023-02-19T09:34:16.042Z,5.90
2023-02-19T09:37:40.342Z,5.50
2023-02-19T09:40:50.064Z,6.80
2023-02-19T09:43:59.907Z,8.40
2023-02-19T09:47:07.218Z,4.90
2023-02-19T09:48:01.433Z,5.20
2023-02-19T09:51:08.406Z,4.90
2023-02-19T09:53:07.336Z,3.80
2023-02-19T09:56:14.331Z,5.60
2023-02-19T09:58:15.252Z,3.80
2023-02-19T10:01:22.491Z,4.80
2023-02-19T10:04:30.051Z,5.80
2023-02-19T10:07:37.256Z,5.60
2023-02-19T10:10:46.210Z,5.60
2023-02-19T10:13:38.306Z,4.60
2023-02-19T10:16:46.717Z,8.10
2023-02-19T10:18:45.270Z,6.00
2023-02-19T10:21:54.365Z,7.60
2023-02-19T10:25:02.755Z,6.20
2023-02-19T10:28:11.912Z,7.30
2023-02-19T10:28:55.595Z,4.80
2023-02-19T10:32:02.900Z,5.80
2023-02-19T10:35:11.784Z,8.30
2023-02-19T10:38:18.909Z,7.70
2023-02-19T10:39:13.366Z,7.60
2023-02-19T10:42:22.312Z,6.00
2023-02-19T10:44:20.813Z,7.40
2023-02-19T10:47:30.195Z,6.80
2023-02-19T10:50:40.195Z,6.90
2023-02-19T10:53:49.211Z,7.10
2023-02-19T10:54:32.717Z,7.00
2023-02-19T10:57:39.632Z,6.50
2023-02-19T10:59:40.268Z,9.40
2023-02-19T11:02:48.107Z,8.20
2023-02-19T11:04:49.272Z,6.20
2023-02-19T11:07:56.684Z,6.30
2023-02-19T11:09:59.251Z,8.30
2023-02-19T11:13:02.684Z,6.50
2023-02-19T11:15:02.071Z,9.20
2023-02-19T11:18:10.672Z,7.00
2023-02-19T11:20:10.811Z,6.00
2023-02-19T11:23:17.700Z,6.20
2023-02-19T11:25:20.378Z,8.60
2023-02-19T11:28:16.854Z,8.20
2023-02-19T11:30:28.114Z,4.50
2023-02-19T11:33:35.265Z,5.70
2023-02-19T11:35:34.154Z,4.60
2023-02-19T11:38:43.890Z,6.30
2023-02-19T11:41:54.137Z,6.80
2023-02-19T11:45:01.201Z,7.50
2023-02-19T11:45:47.496Z,3.10
2023-02-19T11:48:56.330Z,5.80
2023-02-19T11:50:55.056Z,12.00
2023-02-19T11:54:04.387Z,10.60
2023-02-19T11:56:02.954Z,6.00
2023-02-19T11:59:11.093Z,6.60
2023-02-19T12:01:10.128Z,5.50
2023-02-19T12:04:12.469Z,7.80
2023-02-19T12:06:24.482Z,4.80
2023-02-19T12:09:25.469Z,7.40
2023-02-19T12:11:36.502Z,10.20
2023-02-19T12:14:43.922Z,8.00
2023-02-19T12:16:45.270Z,5.20
2023-02-19T12:19:52.686Z,9.50
2023-02-19T12:21:51.202Z,8.50
2023-02-19T12:24:59.707Z,7.70
2023-02-19T12:26:58.264Z,8.40
2023-02-19T12:30:08.473Z,8.80
2023-02-19T12:33:07.623Z,11.90
2023-02-19T12:36:53.718Z,9.20
2023-02-19T12:37:38.907Z,5.40
2023-02-19T12:40:46.974Z,5.40
2023-02-19T12:44:35.868Z,9.90
2023-02-19T12:47:35.029Z,8.60
2023-02-19T12:50:43.314Z,7.90
2023-02-19T12:52:52.619Z,8.20
2023-02-19T12:56:01.636Z,3.60
2023-02-19T12:58:00.125Z,6.30
2023-02-19T13:01:07.797Z,3.30
2023-02-19T13:04:17.618Z,2.80
2023-02-19T13:07:25.984Z,3.90
2023-02-19T13:08:09.480Z,6.70
2023-02-19T13:11:16.638Z,8.40
2023-02-19T13:14:26.982Z,6.40
2023-02-19T13:17:34.059Z,4.60
2023-02-19T13:18:17.521Z,7.10
2023-02-19T13:21:26.674Z,5.60
2023-02-19T13:24:34.834Z,3.20
2023-02-19T13:27:43.031Z,2.40
2023-02-19T13:30:50.843Z,2.90
2023-02-19T13:33:35.380Z,4.20
2023-02-19T13:36:33.549Z,3.30
2023-02-19T13:40:19.671Z,4.60
2023-02-19T13:43:46.941Z,3.80
2023-02-19T13:46:55.153Z,4.20
2023-02-19T13:48:57.049Z,5.50
2023-02-19T13:51:54.206Z,3.10
2023-02-19T13:54:42.579Z,4.90
2023-02-19T13:57:49.472Z,1.80
2023-02-19T14:00:56.809Z,1.80
2023-02-19T14:04:04.682Z,1.70
2023-02-19T14:07:13.084Z,6.30
2023-02-19T14:10:20.604Z,6.30
2023-02-19T14:13:29.223Z,4.70
2023-02-19T14:16:36.935Z,4.00
2023-02-19T14:19:44.360Z,4.50
2023-02-19T14:22:51.446Z,3.50
2023-02-19T14:25:59.225Z,2.60
2023-02-19T14:29:06.569Z,5.50
2023-02-19T14:32:13.783Z,2.70
2023-02-19T14:35:21.594Z,3.90
2023-02-19T14:38:28.627Z,1.70
2023-02-19T14:41:35.932Z,3.20
2023-02-19T14:44:43.804Z,6.50
2023-02-19T14:47:51.239Z,3.50
2023-02-19T14:50:58.671Z,2.20
2023-02-19T14:54:06.482Z,4.20
2023-02-19T14:57:13.779Z,4.10
2023-02-19T15:00:21.017Z,3.40
2023-02-19T15:03:28.445Z,3.70
2023-02-19T15:06:33.404Z,3.10
2023-02-19T15:09:36.799Z,1.90
2023-02-19T15:12:38.502Z,3.60
2023-02-19T15:15:49.338Z,5.30
2023-02-19T15:18:58.975Z,2.50
2023-02-19T15:22:08.094Z,3.90
2023-02-19T15:25:16.856Z,4.60
2023-02-19T15:28:23.939Z,3.70
2023-02-19T15:31:31.148Z,4.30
2023-02-19T15:34:38.970Z,4.30
2023-02-19T15:37:46.160Z,2.80
2023-02-19T15:40:53.676Z,3.20
2023-02-19T15:44:01.109Z,2.80
2023-02-19T15:47:08.769Z,3.70
2023-02-19T15:50:16.435Z,4.70
2023-02-19T15:53:23.959Z,2.40
2023-02-19T15:56:31.573Z,5.30
2023-02-19T15:59:38.927Z,2.60
2023-02-19T16:02:46.944Z,3.20
2023-02-19T16:05:54.910Z,3.20
2023-02-19T16:09:02.688Z,5.10
2023-02-19T16:12:11.339Z,4.40
2023-02-19T16:15:18.640Z,2.70
2023-02-19T16:18:26.533Z,3.20
2023-02-19T16:21:34.041Z,4.20
2023-02-19T16:24:42.421Z,4.20
2023-02-19T16:27:49.922Z,4.20
2023-02-19T16:30:57.338Z,2.00
2023-02-19T16:34:04.692Z,1.80
2023-02-19T16:37:12.351Z,2.90
2023-02-19T16:40:19.543Z,2.90
2023-02-19T16:43:27.250Z,3.80
2023-02-19T16:46:36.766Z,5.00
2023-02-19T16:49:44.184Z,7.60
2023-02-19T16:52:52.060Z,4.00
2023-02-19T16:55:59.674Z,4.80
2023-02-19T16:59:07.515Z,3.90
2023-02-19T17:02:16.547Z,5.20
2023-02-19T17:05:26.048Z,5.60
2023-02-19T17:08:34.672Z,3.10
2023-02-19T17:11:42.889Z,5.50
2023-02-19T17:14:50.037Z,4.30
2023-02-19T17:17:57.520Z,5.70
2023-02-19T17:21:05.218Z,3.10
2023-02-19T17:24:12.687Z,5.40
2023-02-19T17:27:20.684Z,5.30
2023-02-19T17:30:28.056Z,8.60
2023-02-19T17:33:35.181Z,9.20
2023-02-19T17:36:42.292Z,7.50
2023-02-19T17:39:51.037Z,12.90
2023-02-19T17:42:58.651Z,7.60
2023-02-19T17:46:05.982Z,9.00
2023-02-19T17:49:14.113Z,8.20
2023-02-19T17:52:21.486Z,6.70
2023-02-19T17:55:28.543Z,5.00
2023-02-19T17:58:36.088Z,6.20
2023-02-19T18:01:43.495Z,8.80
2023-02-19T18:04:50.673Z,8.50
2023-02-19T18:07:58.473Z,10.40
2023-02-19T18:11:06.298Z,7.50
2023-02-19T18:14:13.925Z,9.70
2023-02-19T18:17:21.847Z,6.40
2023-02-19T18:20:29.467Z,7.90
2023-02-19T18:23:36.955Z,8.70
2023-02-19T18:26:44.537Z,7.70
2023-02-19T18:29:52.241Z,9.80
2023-02-19T18:32:59.914Z,9.00
2023-02-19T18:36:07.151Z,9.00
2023-02-19T18:39:14.698Z,16.10
2023-02-19T18:42:21.899Z,13.50
2023-02-19T18:45:29.569Z,13.30
2023-02-19T18:48:37.149Z,14.80
2023-02-19T18:51:44.023Z,25.40
2023-02-19T18:54:51.635Z,14.30
2023-02-19T18:57:59.414Z,13.10
2023-02-19T19:01:06.556Z,14.30
2023-02-19T19:04:14.009Z,11.20
2023-02-19T19:07:21.430Z,11.90
2023-02-19T19:10:28.387Z,14.10
2023-02-19T19:13:36.425Z,12.60
2023-02-19T19:16:43.891Z,14.70
2023-02-19T19:19:51.148Z,14.50
2023-02-19T19:22:58.532Z,12.20
2023-02-19T19:26:06.118Z,15.80
2023-02-19T19:29:13.323Z,13.60
2023-02-19T19:32:20.803Z,14.90
2023-02-19T19:35:28.283Z,16.80
2023-02-19T19:38:35.546Z,23.40
2023-02-19T19:41:42.953Z,32.20
2023-02-19T19:44:50.722Z,26.20
2023-02-19T19:47:57.650Z,24.30
2023-02-19T19:51:04.966Z,27.00
2023-02-19T19:54:12.911Z,21.50
2023-02-19T19:57:19.937Z,17.80
2023-02-19T20:00:27.680Z,16.30
2023-02-19T20:03:35.671Z,17.10
2023-02-19T20:06:42.749Z,11.20
2023-02-19T20:09:49.924Z,11.20
2023-02-19T20:12:57.365Z,12.50
2023-02-19T20:16:05.042Z,12.40
2023-02-19T20:19:12.596Z,11.70
2023-02-19T20:22:19.965Z,11.10
2023-02-19T20:25:27.804Z,9.80
2023-02-19T20:28:35.302Z,11.60
2023-02-19T20:31:43.004Z,14.30
2023-02-19T20:34:50.509Z,13.90
2023-02-19T20:37:58.017Z,10.40
2023-02-19T20:41:05.451Z,10.50
2023-02-19T20:44:13.034Z,10.70
2023-02-19T20:47:20.463Z,13.60
2023-02-19T20:50:27.765Z,9.10
2023-02-19T20:53:35.422Z,8.20
2023-02-19T20:56:42.960Z,9.60
2023-02-19T20:59:50.674Z,10.60
2023-02-19T21:02:58.284Z,9.00
2023-02-19T21:06:05.329Z,11.40
2023-02-19T21:09:13.098Z,11.50
2023-02-19T21:12:20.816Z,8.10
2023-02-19T21:15:27.914Z,10.00
2023-02-19T21:18:35.651Z,10.20
2023-02-19T21:21:42.959Z,9.00
2023-02-19T21:24:50.305Z,11.70
2023-02-19T21:27:58.056Z,10.10
2023-02-19T21:31:05.408Z,12.50
2023-02-19T21:34:12.908Z,10.20
2023-02-19T21:37:20.925Z,12.10
2023-02-19T21:40:28.429Z,12.30
2023-02-19T21:43:35.899Z,10.90
2023-02-19T21:46:43.441Z,12.40
2023-02-19T21:49:50.648Z,12.10
2023-02-19T21:52:58.445Z,12.50
2023-02-19T21:56:06.062Z,12.30
2023-02-19T21:59:13.187Z,11.00
2023-02-19T22:02:20.970Z,11.80
2023-02-19T22:05:28.433Z,11.10
2023-02-19T22:08:35.734Z,9.40
2023-02-19T22:11:43.698Z,9.50
2023-02-19T22:14:51.260Z,10.40
2023-02-19T22:17:58.743Z,10.40
2023-02-19T22:21:06.071Z,9.20
2023-02-19T22:24:13.992Z,8.60
2023-02-19T22:27:21.441Z,10.60
2023-02-19T22:30:28.751Z,7.60
2023-02-19T22:33:36.509Z,8.00
2023-02-19T22:36:43.983Z,9.60
2023-02-19T22:39:51.370Z,7.20
2023-02-19T22:42:59.049Z,9.90
2023-02-19T22:46:06.042Z,7.00
2023-02-19T22:49:13.614Z,8.60
2023-02-19T22:52:21.188Z,8.30
2023-02-19T22:55:28.287Z,11.40
2023-02-19T22:58:36.170Z,9.80
2023-02-19T23:01:43.897Z,12.50
2023-02-19T23:04:50.920Z,10.10
2023-02-19T23:07:58.802Z,8.80
2023-02-19T23:11:06.210Z,11.50
2023-02-19T23:14:13.897Z,10.10
2023-02-19T23:17:20.976Z,9.50
2023-02-19T23:20:28.417Z,12.50
2023-02-19T23:23:36.256Z,9.70
2023-02-19T23:26:43.646Z,9.30
2023-02-19T23:29:51.039Z,8.40
2023-02-19T23:32:58.962Z,8.80
2023-02-19T23:36:06.265Z,12.10
2023-02-19T23:39:13.516Z,11.10
2023-02-19T23:42:21.192Z,10.60
2023-02-19T23:45:28.294Z,12.60
2023-02-19T23:48:35.916Z,11.60
2023-02-19T23:51:43.765Z,9.50
2023-02-19T23:54:50.763Z,10.90
2023-02-19T23:57:58.825Z,10.60
